Walnut Hill, Florida
Current Conditions -  °F | °C
As of 12:56 PM on Saturday 25 Oct 2014 (Local Time) from KNSE Reporting Station
Clear Clear  
Wind Chill: 75°   Ceiling: Unl
Heat Index: 75°   Visibility: 10mi
Dew Point: 50°   Wind: 6mph
Humidity: 41%   Direction: NA
Pressure: 30.07"   Gusts: NA
Location:  30.8697°N, 87.4663°W
Report Text: KNSE 251756Z VRB05KT 10SM CLR 24/10 A3007 RMK AO2 SLP168 T02390100 10239 20089 58017 $
Loading
Personal Weather Stations






























Interactive Weather Map
Tropical Storm Tracking
New forecast layout! Learn more

10-Day Weather Forecast

Advertisements
Track Severe Weather on mobile